createdAt,value
2023-05-05T00:00:26.098Z,12.61
2023-05-05T00:01:26.192Z,12.61
2023-05-05T00:02:26.336Z,12.58
2023-05-05T00:03:26.439Z,12.57
2023-05-05T00:04:26.472Z,12.58
2023-05-05T00:05:26.500Z,12.61
2023-05-05T00:06:26.594Z,12.58
2023-05-05T00:07:26.704Z,12.61
2023-05-05T00:08:26.849Z,12.57
2023-05-05T00:09:26.912Z,12.57
2023-05-05T00:10:27.103Z,12.57
2023-05-05T00:11:27.176Z,12.57
2023-05-05T00:12:27.256Z,12.55
2023-05-05T00:13:27.307Z,12.54
2023-05-05T00:14:27.383Z,12.53
2023-05-05T00:15:27.473Z,12.54
2023-05-05T00:16:27.609Z,12.54
2023-05-05T00:17:27.700Z,12.57
2023-05-05T00:18:27.774Z,12.57
2023-05-05T00:19:27.834Z,12.57
2023-05-05T00:20:28.105Z,12.57
2023-05-05T00:21:28.186Z,12.57
2023-05-05T00:22:28.282Z,12.55
2023-05-05T00:23:28.346Z,12.57
2023-05-05T00:24:28.546Z,12.55
2023-05-05T00:25:28.593Z,12.54
2023-05-05T00:26:28.777Z,12.54
2023-05-05T00:27:28.849Z,12.53
2023-05-05T00:28:28.917Z,12.54
2023-05-05T00:29:28.997Z,12.51
2023-05-05T00:30:29.082Z,12.51
2023-05-05T00:31:29.198Z,12.48
2023-05-05T00:32:29.303Z,12.50
2023-05-05T00:33:29.340Z,12.47
2023-05-05T00:34:29.419Z,12.50
2023-05-05T00:35:29.489Z,12.45
2023-05-05T00:36:29.581Z,12.47
2023-05-05T00:37:29.638Z,12.44
2023-05-05T00:38:29.733Z,12.43
2023-05-05T00:39:29.819Z,12.43
2023-05-05T00:40:29.926Z,12.40
2023-05-05T00:41:30.025Z,12.37
2023-05-05T00:42:30.122Z,12.37
2023-05-05T00:43:30.217Z,12.36
2023-05-05T00:44:30.882Z,12.35
2023-05-05T00:45:30.446Z,12.36
2023-05-05T00:46:30.588Z,12.35
2023-05-05T00:47:30.711Z,12.32
2023-05-05T00:48:30.803Z,12.33
2023-05-05T00:49:30.959Z,12.32
2023-05-05T00:50:31.057Z,12.30
2023-05-05T00:51:31.131Z,12.32
2023-05-05T00:52:31.222Z,12.30
2023-05-05T00:53:31.269Z,12.30
2023-05-05T00:54:31.329Z,12.28
2023-05-05T00:55:31.402Z,12.25
2023-05-05T00:56:31.478Z,12.25
2023-05-05T00:57:31.556Z,12.23
2023-05-05T00:58:31.655Z,12.20
2023-05-05T00:59:31.733Z,12.21
2023-05-05T01:00:31.775Z,12.17
2023-05-05T01:01:31.995Z,12.15
2023-05-05T01:02:32.111Z,12.12
2023-05-05T01:03:32.298Z,12.10
2023-05-05T01:04:32.362Z,12.08
2023-05-05T01:05:32.433Z,12.10
2023-05-05T01:06:32.519Z,12.08
2023-05-05T01:07:32.569Z,12.07
2023-05-05T01:08:32.630Z,12.05
2023-05-05T01:09:32.808Z,12.03
2023-05-05T01:10:32.900Z,12.05
2023-05-05T01:11:33.037Z,12.03
2023-05-05T01:12:33.173Z,12.00
2023-05-05T01:13:33.206Z,11.99
2023-05-05T01:14:33.262Z,11.97
2023-05-05T01:15:33.350Z,11.96
2023-05-05T01:16:33.470Z,11.95
2023-05-05T01:17:33.531Z,11.93
2023-05-05T01:18:33.616Z,11.93
2023-05-05T01:19:33.704Z,11.95
2023-05-05T01:20:33.777Z,11.95
2023-05-05T01:21:33.874Z,11.96
2023-05-05T01:22:33.947Z,11.95
2023-05-05T01:23:34.025Z,11.95
2023-05-05T01:24:34.089Z,11.91
2023-05-05T01:25:34.175Z,11.93
2023-05-05T01:26:34.339Z,11.88
2023-05-05T01:27:34.504Z,11.88
2023-05-05T01:28:34.554Z,11.86
2023-05-05T01:29:34.618Z,11.85
2023-05-05T01:30:34.679Z,11.85
2023-05-05T01:31:34.904Z,11.85
2023-05-05T01:32:34.968Z,11.83
2023-05-05T01:33:35.189Z,11.83
2023-05-05T01:34:35.292Z,11.83
2023-05-05T01:35:35.394Z,11.86
2023-05-05T01:36:35.478Z,11.85
2023-05-05T01:37:35.556Z,11.83
2023-05-05T01:38:35.611Z,11.81
2023-05-05T01:39:35.719Z,11.81
2023-05-05T01:40:35.755Z,11.77
2023-05-05T01:41:35.846Z,11.77
2023-05-05T01:42:35.919Z,11.77
2023-05-05T01:43:36.004Z,11.76
2023-05-05T01:44:36.085Z,11.74
2023-05-05T01:45:36.205Z,11.76
2023-05-05T01:46:36.353Z,11.74
2023-05-05T01:47:36.351Z,11.74
2023-05-05T01:48:36.393Z,11.71
2023-05-05T01:49:36.592Z,11.71
2023-05-05T01:50:36.680Z,11.71
2023-05-05T01:51:36.773Z,11.68
2023-05-05T01:52:36.830Z,11.68
2023-05-05T01:53:37.004Z,11.63
2023-05-05T01:54:37.071Z,11.63
2023-05-05T01:55:37.155Z,11.62
2023-05-05T01:56:37.256Z,11.59
2023-05-05T01:57:37.335Z,11.58
2023-05-05T01:58:37.405Z,11.55
2023-05-05T01:59:37.489Z,11.53
2023-05-05T02:00:37.712Z,11.55
2023-05-05T02:01:37.792Z,11.53
2023-05-05T02:02:37.828Z,11.55
2023-05-05T02:03:38.006Z,11.58
2023-05-05T02:04:38.080Z,11.58
2023-05-05T02:05:38.173Z,11.58
2023-05-05T02:06:38.244Z,11.56
2023-05-05T02:07:38.322Z,11.56
2023-05-05T02:08:38.375Z,11.56
2023-05-05T02:09:38.556Z,11.58
2023-05-05T02:10:38.622Z,11.60
2023-05-05T02:11:38.712Z,11.60
2023-05-05T02:12:38.799Z,11.62
2023-05-05T02:13:38.968Z,11.59
2023-05-05T02:14:39.020Z,11.58
2023-05-05T02:15:39.144Z,11.55
2023-05-05T02:16:39.203Z,11.53
2023-05-05T02:17:39.312Z,11.55
2023-05-05T02:18:39.357Z,11.55
2023-05-05T02:19:39.439Z,11.52
2023-05-05T02:20:40.504Z,11.52
2023-05-05T02:21:39.710Z,11.49
2023-05-05T02:22:39.787Z,11.49
2023-05-05T02:23:39.869Z,11.49
2023-05-05T02:24:39.948Z,11.48
2023-05-05T02:25:40.055Z,11.44
2023-05-05T02:26:40.231Z,11.41
2023-05-05T02:27:40.219Z,11.40
2023-05-05T02:28:40.324Z,11.38
2023-05-05T02:29:40.397Z,11.38
2023-05-05T02:30:40.474Z,11.40
2023-05-05T02:31:40.635Z,11.37
2023-05-05T02:32:40.657Z,11.35
2023-05-05T02:33:40.865Z,11.37
2023-05-05T02:34:41.222Z,11.38
2023-05-05T02:35:40.969Z,11.38
2023-05-05T02:36:41.099Z,11.38
2023-05-05T02:37:41.228Z,11.40
2023-05-05T02:38:41.307Z,11.37
2023-05-05T02:39:41.400Z,11.35
2023-05-05T02:40:41.494Z,11.34
2023-05-05T02:41:41.591Z,11.31
2023-05-05T02:42:41.664Z,11.33
2023-05-05T02:43:41.746Z,11.34
2023-05-05T02:44:41.831Z,11.33
2023-05-05T02:45:41.913Z,11.33
2023-05-05T02:46:42.006Z,11.27
2023-05-05T02:47:43.052Z,11.27
2023-05-05T02:48:42.221Z,11.27
2023-05-05T02:49:42.319Z,11.27
2023-05-05T02:50:42.414Z,11.26
2023-05-05T02:51:42.504Z,11.25
2023-05-05T02:52:42.667Z,11.27
2023-05-05T02:53:42.747Z,11.25
2023-05-05T02:54:42.934Z,11.23
2023-05-05T02:55:42.994Z,11.22
2023-05-05T02:56:43.088Z,11.20
2023-05-05T02:57:43.180Z,11.22
2023-05-05T02:58:43.262Z,11.20
2023-05-05T02:59:43.362Z,11.20
2023-05-05T03:00:43.466Z,11.20
2023-05-05T03:01:43.602Z,11.22
2023-05-05T03:02:43.749Z,11.22
2023-05-05T03:03:43.824Z,11.20
2023-05-05T03:04:43.905Z,11.18
2023-05-05T03:05:44.028Z,11.13
2023-05-05T03:06:44.109Z,11.13
2023-05-05T03:07:44.181Z,11.13
2023-05-05T03:08:44.254Z,11.10
2023-05-05T03:09:44.453Z,11.13
2023-05-05T03:10:44.533Z,11.12
2023-05-05T03:11:44.636Z,11.10
2023-05-05T03:12:44.761Z,11.12
2023-05-05T03:13:44.839Z,11.12
2023-05-05T03:14:45.010Z,11.15
2023-05-05T03:15:45.150Z,11.15
2023-05-05T03:16:45.283Z,11.13
2023-05-05T03:17:45.977Z,11.12
2023-05-05T03:18:45.479Z,11.10
2023-05-05T03:19:45.661Z,11.12
2023-05-05T03:20:45.731Z,11.12
2023-05-05T03:21:45.943Z,11.12
2023-05-05T03:22:46.028Z,11.12
2023-05-05T03:23:46.136Z,11.13
2023-05-05T03:24:46.225Z,11.13
2023-05-05T03:25:46.325Z,11.13
2023-05-05T03:26:46.442Z,11.10
2023-05-05T03:27:46.537Z,11.10
2023-05-05T03:28:46.625Z,11.08
2023-05-05T03:29:46.704Z,11.08
2023-05-05T03:30:46.783Z,11.04
2023-05-05T03:31:46.988Z,11.05
2023-05-05T03:32:47.064Z,11.05
2023-05-05T03:33:47.151Z,11.05
2023-05-05T03:34:47.245Z,11.02
2023-05-05T03:35:47.350Z,11.01
2023-05-05T03:36:47.521Z,11.01
2023-05-05T03:37:47.604Z,11.02
2023-05-05T03:38:47.700Z,11.04
2023-05-05T03:39:47.884Z,11.01
2023-05-05T03:40:47.952Z,11.04
2023-05-05T03:41:48.362Z,11.00
2023-05-05T03:42:48.334Z,11.01
2023-05-05T03:43:48.410Z,11.02
2023-05-05T03:44:48.493Z,11.02
2023-05-05T03:45:48.596Z,11.01
2023-05-05T03:46:48.685Z,11.00
2023-05-05T03:47:48.806Z,10.98
2023-05-05T03:48:48.832Z,10.98
2023-05-05T03:49:49.016Z,10.97
2023-05-05T03:50:49.115Z,10.95
2023-05-05T03:51:49.225Z,10.95
2023-05-05T03:52:49.319Z,10.92
2023-05-05T03:53:49.405Z,10.92
2023-05-05T03:54:49.468Z,10.92
2023-05-05T03:55:49.557Z,10.90
2023-05-05T03:56:49.656Z,10.92
2023-05-05T03:57:49.737Z,10.89
2023-05-05T03:58:50.408Z,10.90
2023-05-05T03:59:49.935Z,10.90
2023-05-05T04:00:50.047Z,10.92
2023-05-05T04:01:50.204Z,10.92
2023-05-05T04:02:50.388Z,10.90
2023-05-05T04:03:50.468Z,10.90
2023-05-05T04:04:50.544Z,10.90
2023-05-05T04:05:50.636Z,10.94
2023-05-05T04:06:50.718Z,10.92
2023-05-05T04:07:50.817Z,10.92
2023-05-05T04:08:50.883Z,10.94
2023-05-05T04:09:50.967Z,10.95
2023-05-05T04:10:51.042Z,10.97
2023-05-05T04:11:51.272Z,10.95
2023-05-05T04:12:51.420Z,10.92
2023-05-05T04:13:51.479Z,10.90
2023-05-05T04:14:51.560Z,10.90
2023-05-05T04:15:51.697Z,10.89
2023-05-05T04:16:51.772Z,10.92
2023-05-05T04:17:51.923Z,10.92
2023-05-05T04:18:51.982Z,10.92
2023-05-05T04:19:52.093Z,10.95
2023-05-05T04:20:52.167Z,10.95
2023-05-05T04:21:52.300Z,10.97
2023-05-05T04:22:52.865Z,10.97
2023-05-05T04:23:52.476Z,11.00
2023-05-05T04:24:52.553Z,10.98
2023-05-05T04:25:52.753Z,10.98
2023-05-05T04:26:52.847Z,10.98
2023-05-05T04:27:52.934Z,11.02
2023-05-05T04:28:53.051Z,11.02
2023-05-05T04:29:53.172Z,11.05
2023-05-05T04:30:53.295Z,11.04
2023-05-05T04:31:53.377Z,11.04
2023-05-05T04:32:53.614Z,11.05
2023-05-05T04:33:53.623Z,11.08
2023-05-05T04:34:53.864Z,11.12
2023-05-05T04:35:53.839Z,11.10
2023-05-05T04:36:53.932Z,11.12
2023-05-05T04:37:54.014Z,11.13
2023-05-05T04:38:54.196Z,11.13
2023-05-05T04:39:54.237Z,11.13
2023-05-05T04:40:54.324Z,11.12
2023-05-05T04:41:54.418Z,11.16
2023-05-05T04:42:54.493Z,11.19
2023-05-05T04:43:54.581Z,11.20
2023-05-05T04:44:54.658Z,11.22
2023-05-05T04:45:54.771Z,11.26
2023-05-05T04:46:56.295Z,11.27
2023-05-05T04:47:54.923Z,11.31
2023-05-05T04:48:55.022Z,11.31
2023-05-05T04:49:55.128Z,11.35
2023-05-05T04:50:55.194Z,11.40
2023-05-05T04:51:55.304Z,11.41
2023-05-05T04:52:55.379Z,11.44
2023-05-05T04:53:55.466Z,11.48
2023-05-05T04:54:55.554Z,11.51
2023-05-05T04:55:55.644Z,11.49
2023-05-05T04:56:55.791Z,11.49
2023-05-05T04:57:55.830Z,11.48
2023-05-05T04:58:55.906Z,11.49
2023-05-05T04:59:56.095Z,11.49
2023-05-05T05:00:56.173Z,11.51
2023-05-05T05:01:56.331Z,11.53
2023-05-05T05:02:56.467Z,11.56
2023-05-05T05:03:56.633Z,11.58
2023-05-05T05:04:56.706Z,11.60
2023-05-05T05:05:56.803Z,11.63
2023-05-05T05:06:59.109Z,11.68
2023-05-05T05:07:57.034Z,11.73
2023-05-05T05:08:57.205Z,11.73
2023-05-05T05:09:57.275Z,11.77
2023-05-05T05:10:57.358Z,11.80
2023-05-05T05:11:57.452Z,11.83
2023-05-05T05:12:57.555Z,11.81
2023-05-05T05:13:57.625Z,11.86
2023-05-05T05:14:57.721Z,11.95
2023-05-05T05:15:57.873Z,11.96
2023-05-05T05:16:57.944Z,11.97
2023-05-05T05:17:58.090Z,11.99
2023-05-05T05:18:58.680Z,11.96
2023-05-05T05:19:58.241Z,11.99
2023-05-05T05:20:58.346Z,12.02
2023-05-05T05:21:58.445Z,12.05
2023-05-05T05:22:58.487Z,12.08
2023-05-05T05:23:58.559Z,12.12
2023-05-05T05:24:58.642Z,12.12
2023-05-05T05:25:58.720Z,12.12
2023-05-05T05:26:58.816Z,12.17
2023-05-05T05:28:09.571Z,12.20
2023-05-05T05:28:59.946Z,12.18
2023-05-05T05:30:06.420Z,12.23
2023-05-05T05:30:59.165Z,12.28
2023-05-05T05:31:59.292Z,12.28
2023-05-05T05:32:59.388Z,12.29
2023-05-05T05:33:59.450Z,12.30
2023-05-05T05:34:59.521Z,12.40
2023-05-05T05:35:59.715Z,12.43
2023-05-05T05:36:59.841Z,12.45
2023-05-05T05:37:59.930Z,12.54
2023-05-05T05:39:00.003Z,12.57
2023-05-05T05:40:00.090Z,12.58
2023-05-05T05:41:00.183Z,12.65
2023-05-05T05:42:00.235Z,12.75
2023-05-05T05:43:00.300Z,12.81
2023-05-05T05:44:00.389Z,12.75
2023-05-05T05:45:00.591Z,12.84
2023-05-05T05:46:00.623Z,12.99
2023-05-05T05:47:00.880Z,13.02
2023-05-05T05:48:01.765Z,13.03
2023-05-05T05:49:00.931Z,13.05
2023-05-05T05:50:00.888Z,13.01
2023-05-05T05:51:01.016Z,13.01
2023-05-05T05:52:01.083Z,13.08
2023-05-05T05:53:01.210Z,13.20
2023-05-05T05:54:01.246Z,13.36
2023-05-05T05:55:01.323Z,13.42
2023-05-05T05:56:01.381Z,13.57
2023-05-05T05:57:01.485Z,13.91
2023-05-05T05:58:01.730Z,14.36
2023-05-05T05:59:01.683Z,15.00
2023-05-05T06:00:02.313Z,15.55
2023-05-05T06:01:01.821Z,16.29
2023-05-05T06:02:02.033Z,16.58
2023-05-05T06:03:02.152Z,17.09
2023-05-05T06:04:02.153Z,17.66
2023-05-05T06:05:02.389Z,18.18
2023-05-05T06:06:02.249Z,17.53
2023-05-05T06:07:02.334Z,17.24
2023-05-05T06:08:02.384Z,16.83
2023-05-05T06:09:02.471Z,15.67
2023-05-05T06:10:11.264Z,15.22
2023-05-05T06:11:03.724Z,15.02
2023-05-05T06:12:03.113Z,14.94
2023-05-05T06:13:02.824Z,14.85
2023-05-05T06:14:02.841Z,14.74
2023-05-05T06:15:02.860Z,14.82
2023-05-05T06:16:02.940Z,14.63
2023-05-05T06:17:03.032Z,14.81
2023-05-05T06:18:03.082Z,15.19
2023-05-05T06:19:03.071Z,15.67
2023-05-05T06:20:03.128Z,16.62
2023-05-05T06:21:03.152Z,17.72
2023-05-05T06:22:03.187Z,18.57
2023-05-05T06:23:03.217Z,18.81
2023-05-05T06:24:03.238Z,19.04
2023-05-05T06:25:03.271Z,18.67
2023-05-05T06:26:03.295Z,18.64
2023-05-05T06:27:03.338Z,18.58
2023-05-05T06:28:03.361Z,18.57
2023-05-05T06:29:03.399Z,18.46
2023-05-05T06:30:03.423Z,18.63
2023-05-05T06:31:03.459Z,18.52
2023-05-05T06:32:03.478Z,18.46
2023-05-05T06:33:03.536Z,18.18
2023-05-05T06:34:03.540Z,17.35
2023-05-05T06:35:03.571Z,17.42
2023-05-05T06:36:03.574Z,17.52
2023-05-05T06:37:03.715Z,17.56
2023-05-05T06:38:03.714Z,17.56
2023-05-05T06:39:03.744Z,17.37
2023-05-05T06:40:03.746Z,17.50
2023-05-05T06:41:03.764Z,17.47
2023-05-05T06:42:03.801Z,17.66
2023-05-05T06:43:03.843Z,17.73
2023-05-05T06:44:04.868Z,17.82
2023-05-05T06:45:03.874Z,17.94
2023-05-05T06:46:03.890Z,18.11
2023-05-05T06:47:03.987Z,17.98
2023-05-05T06:48:04.033Z,18.30
2023-05-05T06:49:04.023Z,18.34
2023-05-05T06:50:04.033Z,18.70
2023-05-05T06:51:04.038Z,18.83
2023-05-05T06:52:04.067Z,18.26
2023-05-05T06:53:04.052Z,17.91
2023-05-05T06:54:04.069Z,18.39
2023-05-05T06:55:04.065Z,18.42
2023-05-05T06:56:04.054Z,18.55
2023-05-05T06:57:04.067Z,18.85
2023-05-05T06:58:04.068Z,19.20
2023-05-05T06:59:04.094Z,18.58
2023-05-05T07:00:04.100Z,17.39
2023-05-05T07:01:04.190Z,16.73
2023-05-05T07:02:04.183Z,16.31
2023-05-05T07:03:04.210Z,16.10
2023-05-05T07:04:04.340Z,16.13
2023-05-05T07:05:04.257Z,16.16
2023-05-05T07:06:04.268Z,16.41
2023-05-05T07:07:04.295Z,16.87
2023-05-05T07:08:04.340Z,17.37
2023-05-05T07:09:04.345Z,17.38
2023-05-05T07:10:04.351Z,17.72
2023-05-05T07:11:04.361Z,17.94
2023-05-05T07:12:04.406Z,17.73
2023-05-05T07:13:04.473Z,17.78
2023-05-05T07:14:04.454Z,17.65
2023-05-05T07:15:15.437Z,17.86
2023-05-05T07:16:05.555Z,18.23
2023-05-05T07:17:04.751Z,18.21
2023-05-05T07:18:04.622Z,18.02
2023-05-05T07:19:04.581Z,17.95
2023-05-05T07:20:04.602Z,18.08
2023-05-05T07:21:04.608Z,18.26
2023-05-05T07:22:04.628Z,18.03
2023-05-05T07:23:04.678Z,18.26
2023-05-05T07:24:04.697Z,18.55
2023-05-05T07:25:04.730Z,18.79
2023-05-05T07:26:04.731Z,19.08
2023-05-05T07:27:04.932Z,19.34
2023-05-05T07:28:04.846Z,19.37
2023-05-05T07:29:04.973Z,19.64
2023-05-05T07:30:11.176Z,19.84
2023-05-05T07:31:05.945Z,20.08
2023-05-05T07:32:05.023Z,20.08
2023-05-05T07:33:05.208Z,20.02
2023-05-05T07:34:05.209Z,20.07
2023-05-05T07:35:05.055Z,20.10
2023-05-05T07:36:05.057Z,20.29
2023-05-05T07:37:05.111Z,20.42
2023-05-05T07:38:05.108Z,20.40
2023-05-05T07:39:05.118Z,20.36
2023-05-05T07:40:05.189Z,20.32
2023-05-05T07:41:05.443Z,20.42
2023-05-05T07:42:05.186Z,20.85
2023-05-05T07:43:05.197Z,20.73
2023-05-05T07:44:05.230Z,20.89
2023-05-05T07:45:05.218Z,20.75
2023-05-05T07:46:05.277Z,20.82
2023-05-05T07:47:05.207Z,20.63
2023-05-05T07:48:05.305Z,20.49
2023-05-05T07:49:05.274Z,21.01
2023-05-05T07:50:05.286Z,20.66
2023-05-05T07:51:05.275Z,20.14
2023-05-05T07:52:05.230Z,19.78
2023-05-05T07:53:13.731Z,19.84
2023-05-05T07:54:06.181Z,19.78
2023-05-05T07:55:05.129Z,19.93
2023-05-05T07:56:05.095Z,19.63
2023-05-05T07:57:05.071Z,19.72
2023-05-05T07:58:05.032Z,20.17
2023-05-05T07:59:05.005Z,20.29
2023-05-05T08:00:04.960Z,20.07
2023-05-05T08:01:04.971Z,19.97
2023-05-05T08:02:04.957Z,19.85
2023-05-05T08:03:05.053Z,20.10
2023-05-05T08:04:04.990Z,20.30
2023-05-05T08:05:05.128Z,20.24
2023-05-05T08:06:04.940Z,20.63
2023-05-05T08:07:04.958Z,20.46
2023-05-05T08:08:04.978Z,20.40
2023-05-05T08:09:04.957Z,20.27
2023-05-05T08:10:05.108Z,20.74
2023-05-05T08:11:05.576Z,20.74
2023-05-05T08:12:04.997Z,20.78
2023-05-05T08:13:05.036Z,20.64
2023-05-05T08:14:04.987Z,20.89
2023-05-05T08:15:05.180Z,20.78
2023-05-05T08:16:05.063Z,20.68
2023-05-05T08:17:04.949Z,20.58
2023-05-05T08:18:05.053Z,20.44
2023-05-05T08:19:09.743Z,20.50
2023-05-05T08:20:05.871Z,20.56
2023-05-05T08:21:04.918Z,20.93
2023-05-05T08:22:04.880Z,21.26
2023-05-05T08:23:04.968Z,21.26
2023-05-05T08:24:04.705Z,20.86
2023-05-05T08:25:04.696Z,20.67
2023-05-05T08:26:04.612Z,20.80
2023-05-05T08:27:04.604Z,20.90
2023-05-05T08:28:04.565Z,20.85
2023-05-05T08:29:04.531Z,20.44
2023-05-05T08:30:04.475Z,20.59
2023-05-05T08:31:04.565Z,20.40
2023-05-05T08:32:04.524Z,20.70
2023-05-05T08:33:04.591Z,21.07
2023-05-05T08:34:04.443Z,21.03
2023-05-05T08:35:04.411Z,21.13
2023-05-05T08:36:05.076Z,20.89
2023-05-05T08:37:04.368Z,20.83
2023-05-05T08:38:04.330Z,20.83
2023-05-05T08:39:04.265Z,20.49
2023-05-05T08:40:04.235Z,20.68
2023-05-05T08:41:04.176Z,20.82
2023-05-05T08:42:04.115Z,21.32
2023-05-05T08:43:04.071Z,21.48
2023-05-05T08:44:04.004Z,21.29
2023-05-05T08:45:04.007Z,21.33
2023-05-05T08:46:03.963Z,21.48
2023-05-05T08:47:03.911Z,21.25
2023-05-05T08:48:03.888Z,21.22
2023-05-05T08:49:03.801Z,21.44
2023-05-05T08:50:03.734Z,21.59
2023-05-05T08:51:05.380Z,21.48
2023-05-05T08:52:03.670Z,21.30
2023-05-05T08:53:03.738Z,21.38
2023-05-05T08:54:03.562Z,21.47
2023-05-05T08:55:03.549Z,21.72
2023-05-05T08:56:03.477Z,21.63
2023-05-05T08:57:03.418Z,21.96
2023-05-05T08:58:03.357Z,22.22
2023-05-05T08:59:03.297Z,22.12
2023-05-05T09:00:03.252Z,22.01
2023-05-05T09:01:03.210Z,21.54
2023-05-05T09:02:03.186Z,21.58
2023-05-05T09:03:03.337Z,21.77
2023-05-05T09:04:03.046Z,21.88
2023-05-05T09:05:02.977Z,21.81
2023-05-05T09:06:02.898Z,21.66
2023-05-05T09:07:02.811Z,21.41
2023-05-05T09:08:02.721Z,21.38
2023-05-05T09:09:02.650Z,21.69
2023-05-05T09:10:02.594Z,21.91
2023-05-05T09:11:02.508Z,22.07
2023-05-05T09:12:02.429Z,21.85
2023-05-05T09:13:02.368Z,22.06
2023-05-05T09:14:02.279Z,22.30
2023-05-05T09:15:02.588Z,22.71
2023-05-05T09:16:02.183Z,23.04
2023-05-05T09:17:02.185Z,22.81
2023-05-05T09:18:02.110Z,22.38
2023-05-05T09:19:02.007Z,22.33
2023-05-05T09:20:01.907Z,22.19
2023-05-05T09:21:01.867Z,22.00
2023-05-05T09:22:01.808Z,21.62
2023-05-05T09:23:01.719Z,21.60
2023-05-05T09:24:07.788Z,21.88
2023-05-05T09:25:02.524Z,21.94
2023-05-05T09:26:01.475Z,21.84
2023-05-05T09:27:01.375Z,22.15
2023-05-05T09:28:01.309Z,22.21
2023-05-05T09:29:01.220Z,22.61
2023-05-05T09:30:01.142Z,22.96
2023-05-05T09:31:01.101Z,22.76
2023-05-05T09:32:00.969Z,22.81
2023-05-05T09:33:00.922Z,22.84
2023-05-05T09:34:00.856Z,22.99
2023-05-05T09:35:00.877Z,23.21
2023-05-05T09:36:00.797Z,23.11
2023-05-05T09:37:00.599Z,22.67
2023-05-05T09:38:00.524Z,22.37
2023-05-05T09:39:00.461Z,22.44
2023-05-05T09:40:00.404Z,22.56
2023-05-05T09:41:00.331Z,22.81
2023-05-05T09:42:00.257Z,23.04
2023-05-05T09:43:00.208Z,23.08
2023-05-05T09:44:00.152Z,22.77
2023-05-05T09:45:00.209Z,22.41
2023-05-05T09:46:00.053Z,22.36
2023-05-05T09:46:59.888Z,22.47
2023-05-05T09:48:00.708Z,22.56
2023-05-05T09:48:59.773Z,22.61
2023-05-05T09:49:59.798Z,22.58
2023-05-05T09:50:59.818Z,22.46
2023-05-05T09:51:59.629Z,22.44
2023-05-05T09:52:59.556Z,22.59
2023-05-05T09:53:59.475Z,22.70
2023-05-05T09:54:59.392Z,23.06
2023-05-05T09:55:59.368Z,23.58
2023-05-05T09:56:59.285Z,24.19
2023-05-05T09:57:59.235Z,24.55
2023-05-05T09:58:59.108Z,24.55
2023-05-05T09:59:59.025Z,24.29
2023-05-05T10:00:58.932Z,23.86
2023-05-05T10:01:59.068Z,23.67
2023-05-05T10:02:58.835Z,23.71
2023-05-05T10:03:58.705Z,23.64
2023-05-05T10:05:00.346Z,23.49
2023-05-05T10:05:58.522Z,23.33
2023-05-05T10:06:58.450Z,23.70
2023-05-05T10:07:58.362Z,23.82
2023-05-05T10:08:58.302Z,24.03
2023-05-05T10:09:58.320Z,24.07
2023-05-05T10:10:58.133Z,23.79
2023-05-05T10:11:58.087Z,23.85
2023-05-05T10:12:58.136Z,23.59
2023-05-05T10:13:57.910Z,23.40
2023-05-05T10:14:57.816Z,23.54
2023-05-05T10:15:57.901Z,23.66
2023-05-05T10:16:57.663Z,23.34
2023-05-05T10:18:06.659Z,23.33
2023-05-05T10:18:58.503Z,23.21
2023-05-05T10:19:57.469Z,23.04
2023-05-05T10:20:57.448Z,22.78
2023-05-05T10:21:57.381Z,22.88
2023-05-05T10:22:57.304Z,23.04
2023-05-05T10:23:58.220Z,23.23
2023-05-05T10:24:57.267Z,23.47
2023-05-05T10:25:57.200Z,23.69
2023-05-05T10:26:57.135Z,23.71
2023-05-05T10:27:57.051Z,24.11
2023-05-05T10:28:56.993Z,24.11
2023-05-05T10:29:56.942Z,24.36
2023-05-05T10:30:56.845Z,24.44
2023-05-05T10:31:56.798Z,24.63
2023-05-05T10:33:13.225Z,25.00
2023-05-05T10:33:57.699Z,25.39
2023-05-05T10:34:56.625Z,25.71
2023-05-05T10:35:56.548Z,26.03
2023-05-05T10:36:56.466Z,25.88
2023-05-05T10:37:56.390Z,25.71
2023-05-05T10:38:56.301Z,25.68
2023-05-05T10:39:56.234Z,25.07
2023-05-05T10:40:56.136Z,24.78
2023-05-05T10:41:56.062Z,24.88
2023-05-05T10:42:55.970Z,24.55
2023-05-05T10:43:55.888Z,24.69
2023-05-05T10:44:55.799Z,25.12
2023-05-05T10:45:55.816Z,25.56
2023-05-05T10:46:55.623Z,25.19
2023-05-05T10:47:55.618Z,25.21
2023-05-05T10:48:55.649Z,25.33
2023-05-05T10:49:55.416Z,25.18
2023-05-05T10:50:55.317Z,24.78
2023-05-05T10:51:55.245Z,24.78
2023-05-05T10:52:55.149Z,24.58
2023-05-05T10:53:55.048Z,24.50
2023-05-05T10:54:54.979Z,24.65
2023-05-05T10:55:54.866Z,24.62
2023-05-05T10:56:54.793Z,24.59
2023-05-05T10:57:54.700Z,24.61
2023-05-05T10:59:00.004Z,24.71
2023-05-05T10:59:55.511Z,24.96
2023-05-05T11:00:54.501Z,24.93
2023-05-05T11:01:54.393Z,24.88
2023-05-05T11:02:54.353Z,25.33
2023-05-05T11:03:54.228Z,25.33
2023-05-05T11:04:54.133Z,25.51
2023-05-05T11:05:54.049Z,25.96
2023-05-05T11:06:53.943Z,26.18
2023-05-05T11:07:53.874Z,26.11
2023-05-05T11:08:53.822Z,26.37
2023-05-05T11:09:53.754Z,26.56
2023-05-05T11:10:53.683Z,26.23
2023-05-05T11:11:53.596Z,25.62
2023-05-05T11:12:53.526Z,25.68
2023-05-05T11:13:53.506Z,25.95
2023-05-05T11:14:53.317Z,26.23
2023-05-05T11:15:53.232Z,26.79
2023-05-05T11:16:53.212Z,26.86
2023-05-05T11:17:53.150Z,26.41
2023-05-05T11:18:53.007Z,26.08
2023-05-05T11:19:52.884Z,25.68
2023-05-05T11:20:52.799Z,25.49
2023-05-05T11:21:52.684Z,25.34
2023-05-05T11:22:52.593Z,25.18
2023-05-05T11:23:52.541Z,25.29
2023-05-05T11:24:52.466Z,24.99
2023-05-05T11:25:52.387Z,25.07
2023-05-05T11:26:52.346Z,25.29
2023-05-05T11:27:52.292Z,25.01
2023-05-05T11:28:52.259Z,25.16
2023-05-05T11:29:59.191Z,25.37
2023-05-05T11:30:52.157Z,25.70
2023-05-05T11:31:52.806Z,25.18
2023-05-05T11:32:52.870Z,25.03
2023-05-05T11:33:52.083Z,25.04
2023-05-05T11:34:52.017Z,24.84
2023-05-05T11:35:51.950Z,24.82
2023-05-05T11:36:51.910Z,24.59
2023-05-05T11:37:51.863Z,24.37
2023-05-05T11:38:51.829Z,24.13
2023-05-05T11:39:51.795Z,24.01
2023-05-05T11:40:51.781Z,23.89
2023-05-05T11:41:51.756Z,23.73
2023-05-05T11:42:51.679Z,23.73
2023-05-05T11:43:51.639Z,23.77
2023-05-05T11:44:51.570Z,23.91
2023-05-05T11:45:51.671Z,23.77
2023-05-05T11:46:51.498Z,23.76
2023-05-05T11:47:51.557Z,23.94
2023-05-05T11:48:51.393Z,24.66
2023-05-05T11:49:51.372Z,25.14
2023-05-05T11:50:51.325Z,24.81
2023-05-05T11:51:51.281Z,24.61
2023-05-05T11:52:51.248Z,24.46
2023-05-05T11:53:51.261Z,24.68
2023-05-05T11:54:51.202Z,24.86
2023-05-05T11:55:51.155Z,24.93
2023-05-05T11:56:51.179Z,25.29
2023-05-05T11:57:51.160Z,25.34
2023-05-05T11:58:51.148Z,25.01
2023-05-05T11:59:51.119Z,24.86
2023-05-05T12:00:51.101Z,24.93
2023-05-05T12:01:51.042Z,25.16
2023-05-05T12:02:51.045Z,25.30
2023-05-05T12:03:51.112Z,24.94
2023-05-05T12:04:51.031Z,24.66
2023-05-05T12:05:50.966Z,24.41
2023-05-05T12:06:50.941Z,24.11
2023-05-05T12:07:50.914Z,23.92
2023-05-05T12:08:50.881Z,24.19
2023-05-05T12:09:50.890Z,25.06
2023-05-05T12:10:50.823Z,25.80
2023-05-05T12:11:50.831Z,26.03
2023-05-05T12:12:51.294Z,26.04
2023-05-05T12:13:50.789Z,26.13
2023-05-05T12:14:51.203Z,26.60
2023-05-05T12:15:50.724Z,26.89
2023-05-05T12:16:50.657Z,26.89
2023-05-05T12:17:50.736Z,26.59
2023-05-05T12:18:50.634Z,26.34
2023-05-05T12:19:50.615Z,26.33
2023-05-05T12:20:50.533Z,26.36
2023-05-05T12:21:50.474Z,26.34
2023-05-05T12:22:50.414Z,26.19
2023-05-05T12:23:50.362Z,25.98
2023-05-05T12:24:50.304Z,26.07
2023-05-05T12:25:50.256Z,26.41
2023-05-05T12:26:50.199Z,26.01
2023-05-05T12:27:50.149Z,25.46
2023-05-05T12:28:50.131Z,25.61
2023-05-05T12:29:50.063Z,25.56
2023-05-05T12:30:50.047Z,25.96
2023-05-05T12:31:50.014Z,26.11
2023-05-05T12:32:49.943Z,26.36
2023-05-05T12:33:49.873Z,26.22
2023-05-05T12:34:49.818Z,26.27
2023-05-05T12:35:49.794Z,26.34
2023-05-05T12:36:49.765Z,26.64
2023-05-05T12:37:49.726Z,26.85
2023-05-05T12:38:49.664Z,26.61
2023-05-05T12:39:49.659Z,26.68
2023-05-05T12:40:49.632Z,26.79
2023-05-05T12:41:49.591Z,26.88
2023-05-05T12:42:49.543Z,26.91
2023-05-05T12:43:49.501Z,26.76
2023-05-05T12:44:49.472Z,26.49
2023-05-05T12:45:49.475Z,26.33
2023-05-05T12:46:49.426Z,25.93
2023-05-05T12:47:49.397Z,26.04
2023-05-05T12:48:49.361Z,26.07
2023-05-05T12:49:49.317Z,26.27
2023-05-05T12:50:49.290Z,26.30
2023-05-05T12:51:49.234Z,26.39
2023-05-05T12:52:49.183Z,26.18